Time;durP1;ratioP1;P1;durP2;ratioP2;P2;SDS_P1;SDS_P2;PMS_P1;PMS_P2;Temp;Humidity;BMP_temperature;BMP_pressure;BME280_temperature;BME280_humidity;BME280_pressure;Samples;Min_cycle;Max_cycle;Signal;HPM_P1;HPM_P2
2021/12/07 00:03:44;;;;;;;0.20;0.10;;;7.60;99.90;;;;;;20483567;29;20277;-70
2021/12/07 00:13:48;;;;;;;0.20;0.00;;;7.20;99.90;;;;;;20496942;28;20661;-70
2021/12/07 00:23:53;;;;;;;0.20;0.00;;;7.10;99.90;;;;;;20480726;29;20201;-70
2021/12/07 00:34:20;;;;;;;0.20;0.00;;;7.20;99.90;;;;;;20495823;29;20251;-71
2021/12/07 00:44:26;;;;;;;0.20;0.00;;;7.40;99.90;;;;;;20498432;29;20737;-70
2021/12/07 00:54:30;;;;;;;0.20;0.00;;;8.00;99.90;;;;;;20508674;28;20220;-71
2021/12/07 01:04:35;;;;;;;0.20;0.10;;;7.60;99.90;;;;;;20549722;23;20236;-71
2021/12/07 01:25:02;;;;;;;11.80;4.47;;;7.80;99.90;;;;;;20588733;28;20291;-75
2021/12/07 01:35:37;;;;;;;0.20;0.00;;;7.80;99.90;;;;;;20572345;28;20236;-75
2021/12/07 01:46:21;;;;;;;0.20;0.00;;;7.40;99.90;;;;;;20588259;28;20211;-75
2021/12/07 02:06:46;;;;;;;0.20;0.00;;;7.40;99.90;;;;;;20587354;28;20652;-76
2021/12/07 02:16:53;;;;;;;0.20;0.00;;;7.30;99.90;;;;;;20586268;28;20616;-78
2021/12/07 02:26:59;;;;;;;0.20;0.00;;;7.30;99.90;;;;;;20586279;28;20224;-75
2021/12/07 02:37:02;;;;;;;0.20;0.00;;;7.20;99.90;;;;;;20567081;28;20290;-74
2021/12/07 02:47:08;;;;;;;0.20;0.10;;;8.30;99.90;;;;;;20584468;28;20203;-75
2021/12/07 02:57:12;;;;;;;0.20;0.10;;;8.40;99.90;;;;;;20583618;28;20231;-76
2021/12/07 03:07:26;;;;;;;0.20;0.10;;;7.90;99.90;;;;;;20584267;28;20242;-77
2021/12/07 03:27:55;;;;;;;0.20;0.10;;;8.50;99.90;;;;;;20581361;28;20277;-73
2021/12/07 03:38:00;;;;;;;0.20;0.07;;;8.30;99.90;;;;;;20580196;28;20720;-75
2021/12/07 03:48:07;;;;;;;0.20;0.10;;;8.20;99.90;;;;;;20561958;28;20235;-73
2021/12/07 03:58:10;;;;;;;0.20;0.10;;;8.50;99.90;;;;;;20561196;28;20227;-76
2021/12/07 04:08:17;;;;;;;0.20;0.03;;;8.50;99.90;;;;;;20562325;28;20247;-75
2021/12/07 04:18:21;;;;;;;0.20;0.00;;;8.80;99.90;;;;;;20563424;28;20220;-76
2021/12/07 04:28:31;;;;;;;0.20;0.10;;;8.70;99.90;;;;;;20577723;28;20203;-75
2021/12/07 04:38:35;;;;;;;0.20;0.10;;;8.80;99.90;;;;;;20559899;28;20344;-76
2021/12/07 04:59:13;;;;;;;0.20;0.00;;;8.80;99.90;;;;;;20575534;28;20651;-76
2021/12/07 05:09:52;;;;;;;0.20;0.10;;;9.30;99.90;;;;;;20416976;29;20633;-76
2021/12/07 05:40:50;;;;;;;0.20;0.10;;;9.00;99.90;;;;;;20336151;29;20209;-75
2021/12/07 05:50:55;;;;;;;0.20;0.03;;;9.50;99.90;;;;;;20335663;29;20207;-74
2021/12/07 06:00:59;;;;;;;0.20;0.10;;;9.60;99.90;;;;;;20399169;28;20298;-78
2021/12/07 06:11:09;;;;;;;0.20;0.10;;;9.90;99.90;;;;;;20586829;28;20243;-75
2021/12/07 06:21:13;;;;;;;0.20;0.00;;;9.80;99.90;;;;;;20587547;28;20592;-77
2021/12/07 06:31:18;;;;;;;0.20;0.10;;;9.00;99.90;;;;;;20585143;28;20560;-75
2021/12/07 06:41:21;;;;;;;0.20;0.10;;;8.90;99.90;;;;;;20587546;28;20295;-78
2021/12/07 06:51:28;;;;;;;0.20;0.10;;;8.80;99.90;;;;;;20578956;28;20404;-77
2021/12/07 07:01:31;;;;;;;0.20;0.00;;;8.60;99.90;;;;;;20565323;28;20232;-76
2021/12/07 07:11:37;;;;;;;0.20;0.07;;;8.30;99.90;;;;;;20581745;28;20223;-76
2021/12/07 07:21:41;;;;;;;0.20;0.00;;;8.00;99.90;;;;;;20564740;28;20204;-73
2021/12/07 07:31:46;;;;;;;0.20;0.10;;;7.80;99.90;;;;;;20580015;28;20318;-76
2021/12/07 07:41:49;;;;;;;0.20;0.10;;;7.70;99.90;;;;;;20580280;28;20478;-75
2021/12/07 07:51:54;;;;;;;0.20;0.10;;;7.60;99.90;;;;;;20581021;28;20315;-75
2021/12/07 08:01:58;;;;;;;0.20;0.00;;;7.80;99.90;;;;;;20576978;28;20224;-76
2021/12/07 08:12:08;;;;;;;0.20;0.00;;;8.00;99.90;;;;;;20576533;28;20227;-74
2021/12/07 08:22:12;;;;;;;0.20;0.00;;;8.40;99.90;;;;;;20570098;28;20294;-77
2021/12/07 08:32:17;;;;;;;0.20;0.10;;;8.70;99.90;;;;;;20574562;28;20266;-75
2021/12/07 08:42:21;;;;;;;0.20;0.10;;;9.40;99.90;;;;;;20573855;28;20281;-74
2021/12/07 08:52:29;;;;;;;0.20;0.10;;;10.00;99.90;;;;;;20573516;28;20247;-75
2021/12/07 09:02:34;;;;;;;0.20;0.10;;;10.50;99.90;;;;;;20572764;28;20608;-73
2021/12/07 09:12:40;;;;;;;0.20;0.10;;;10.90;99.90;;;;;;20559210;28;20234;-74
2021/12/07 09:22:45;;;;;;;0.20;0.10;;;11.80;99.90;;;;;;20541667;28;20295;-74
2021/12/07 09:32:51;;;;;;;0.20;0.10;;;12.20;99.90;;;;;;20559832;28;20295;-71
2021/12/07 09:42:58;;;;;;;0.20;0.10;;;12.40;99.90;;;;;;20551612;28;20243;-71
2021/12/07 09:53:04;;;;;;;0.20;0.10;;;12.90;99.90;;;;;;20583350;28;20252;-73
2021/12/07 10:03:08;;;;;;;0.20;0.10;;;12.70;99.90;;;;;;20585591;28;20657;-73
2021/12/07 10:13:15;;;;;;;0.20;0.10;;;12.90;99.90;;;;;;20585446;28;20234;-73
2021/12/07 10:23:32;;;;;;;0.20;0.10;;;13.50;99.90;;;;;;20567948;28;20585;-73
2021/12/07 10:33:41;;;;;;;0.20;0.10;;;14.10;99.90;;;;;;20505771;28;20283;-72
2021/12/07 10:43:52;;;;;;;0.20;0.10;;;14.60;99.90;;;;;;20501308;29;20582;-73
2021/12/07 10:53:57;;;;;;;0.20;0.10;;;14.60;99.90;;;;;;20500808;28;20717;-73
2021/12/07 11:04:20;;;;;;;0.20;0.10;;;14.80;99.90;;;;;;20567146;28;20220;-73
2021/12/07 11:14:26;;;;;;;0.20;0.10;;;16.40;99.90;;;;;;20579840;28;20307;-73
2021/12/07 11:24:36;;;;;;;0.20;0.00;;;17.20;99.90;;;;;;20578029;28;20220;-74
2021/12/07 11:34:43;;;;;;;0.20;0.10;;;16.30;99.90;;;;;;20576812;28;20227;-75
2021/12/07 11:44:51;;;;;;;0.20;0.10;;;16.90;99.90;;;;;;20577108;28;20196;-73
2021/12/07 11:54:56;;;;;;;0.20;0.10;;;17.50;99.90;;;;;;20575349;28;20745;-72
2021/12/07 12:04:59;;;;;;;0.20;0.20;;;18.80;99.90;;;;;;20575691;28;20227;-70
2021/12/07 12:15:17;;;;;;;0.20;0.10;;;19.30;99.90;;;;;;20547601;28;20227;-73
2021/12/07 12:25:23;;;;;;;0.20;0.10;;;19.20;99.90;;;;;;20574502;28;20200;-74
2021/12/07 12:35:38;;;;;;;0.20;0.00;;;19.10;99.90;;;;;;20573603;28;20220;-73
2021/12/07 12:45:46;;;;;;;0.20;0.00;;;19.50;99.90;;;;;;20572127;28;20196;-73
2021/12/07 12:55:53;;;;;;;0.20;0.00;;;19.90;99.90;;;;;;20556013;28;20227;-73
2021/12/07 13:06:01;;;;;;;0.20;0.00;;;19.20;99.90;;;;;;20555467;28;20242;-74
2021/12/07 13:16:15;;;;;;;0.20;0.10;;;18.80;99.90;;;;;;20559452;28;20224;-75
2021/12/07 13:26:19;;;;;;;0.20;0.10;;;18.60;99.90;;;;;;20588696;28;20198;-74
2021/12/07 13:36:47;;;;;;;0.20;0.10;;;17.50;99.90;;;;;;20585667;28;20232;-75
2021/12/07 13:46:55;;;;;;;0.20;0.00;;;17.80;99.90;;;;;;20582752;28;20196;-73
2021/12/07 13:57:00;;;;;;;0.20;0.00;;;17.70;99.90;;;;;;20583913;28;20283;-75
2021/12/07 14:07:04;;;;;;;0.20;0.00;;;18.10;99.90;;;;;;20574052;28;20228;-74
2021/12/07 14:17:09;;;;;;;0.20;0.00;;;19.20;99.90;;;;;;20570053;28;20267;-73
2021/12/07 14:27:16;;;;;;;0.20;0.00;;;19.00;99.90;;;;;;20569095;28;20231;-75
2021/12/07 14:37:25;;;;;;;0.20;0.10;;;17.80;99.90;;;;;;20568674;28;20231;-73
2021/12/07 14:47:29;;;;;;;0.20;0.10;;;16.60;99.90;;;;;;20568491;28;20231;-74
2021/12/07 14:57:37;;;;;;;0.20;0.10;;;16.60;99.90;;;;;;20550363;28;20220;-75
2021/12/07 15:07:42;;;;;;;0.20;0.00;;;16.90;99.90;;;;;;20567040;28;20334;-76
2021/12/07 15:17:52;;;;;;;0.20;0.10;;;15.80;99.90;;;;;;20565348;28;20868;-73
2021/12/07 15:28:06;;;;;;;0.20;0.10;;;16.50;99.90;;;;;;20565694;28;20199;-73
2021/12/07 15:38:17;;;;;;;0.20;0.10;;;16.50;99.90;;;;;;20564439;28;20589;-74
2021/12/07 15:48:20;;;;;;;0.20;0.00;;;15.50;99.90;;;;;;20563248;28;20200;-74
2021/12/07 15:58:26;;;;;;;0.20;0.10;;;15.00;99.90;;;;;;20561779;28;20239;-75
2021/12/07 16:08:32;;;;;;;0.20;0.10;;;14.70;99.90;;;;;;20561217;28;20286;-74
2021/12/07 16:18:39;;;;;;;0.20;0.03;;;14.60;99.90;;;;;;20543868;28;20728;-74
2021/12/07 16:28:51;;;;;;;0.20;0.10;;;14.40;99.90;;;;;;20559412;28;20215;-74
2021/12/07 16:38:59;;;;;;;0.20;0.10;;;14.30;99.90;;;;;;20562081;28;20263;-74
2021/12/07 16:49:04;;;;;;;0.20;0.00;;;14.30;99.90;;;;;;20571024;28;20288;-74
2021/12/07 16:59:09;;;;;;;0.20;0.10;;;14.10;99.90;;;;;;20570094;28;20299;-74
2021/12/07 17:09:16;;;;;;;0.20;0.10;;;14.00;99.90;;;;;;20554742;28;20226;-75
2021/12/07 17:19:22;;;;;;;0.20;0.10;;;13.70;99.90;;;;;;20573048;28;20223;-75
2021/12/07 17:29:26;;;;;;;0.20;0.10;;;13.70;99.90;;;;;;20570891;28;20204;-74
2021/12/07 17:39:31;;;;;;;0.20;0.03;;;13.60;99.90;;;;;;20568511;28;20270;-76
2021/12/07 17:49:35;;;;;;;0.20;0.10;;;13.50;99.90;;;;;;20570368;28;20223;-76
2021/12/07 17:59:42;;;;;;;0.20;0.10;;;13.60;99.90;;;;;;20570911;28;20319;-76
2021/12/07 18:09:45;;;;;;;0.20;0.10;;;13.60;99.90;;;;;;20582622;28;20192;-73
2021/12/07 18:19:53;;;;;;;0.20;0.10;;;13.60;99.90;;;;;;20583153;28;20327;-75
2021/12/07 18:29:56;;;;;;;0.20;0.10;;;13.40;99.90;;;;;;20547902;28;20340;-75
2021/12/07 18:40:02;;;;;;;0.20;0.10;;;13.40;99.90;;;;;;20560914;28;20626;-75
2021/12/07 18:50:09;;;;;;;0.20;0.00;;;13.20;99.90;;;;;;20578459;28;20247;-72
2021/12/07 19:00:20;;;;;;;0.20;0.00;;;13.20;99.90;;;;;;20579916;28;20640;-76
2021/12/07 19:10:34;;;;;;;0.20;0.10;;;12.50;99.90;;;;;;20576733;28;20247;-74
2021/12/07 19:20:45;;;;;;;0.20;0.10;;;12.20;99.90;;;;;;20578337;28;20212;-74
2021/12/07 19:30:49;;;;;;;0.20;0.00;;;12.10;99.90;;;;;;20577431;28;20188;-74
2021/12/07 19:40:56;;;;;;;0.20;0.10;;;12.30;99.90;;;;;;20573696;28;20224;-77
2021/12/07 19:51:09;;;;;;;0.27;0.13;;;12.50;99.90;;;;;;20558690;28;20263;-74
2021/12/07 20:01:16;;;;;;;0.20;0.10;;;12.30;99.90;;;;;;20575237;28;20240;-77
2021/12/07 20:11:32;;;;;;;0.20;0.00;;;11.50;99.90;;;;;;20556537;28;20223;-76
2021/12/07 20:21:42;;;;;;;0.20;0.10;;;12.10;99.90;;;;;;20556400;28;20255;-76
2021/12/07 20:31:48;;;;;;;0.20;0.10;;;12.90;99.90;;;;;;20571283;28;20262;-77
2021/12/07 20:53:49;;;;;;;0.20;0.10;;;13.40;99.90;;;;;;21175508;23;20232;-76
2021/12/07 21:03:59;;;;;;;0.20;0.10;;;13.30;99.90;;;;;;20506511;28;20582;-75
2021/12/07 21:14:22;;;;;;;0.20;0.00;;;13.30;99.90;;;;;;20541209;28;20303;-77
2021/12/07 21:24:29;;;;;;;0.20;0.10;;;13.40;99.90;;;;;;20555755;28;20211;-76
2021/12/07 21:34:34;;;;;;;0.20;0.00;;;13.60;99.90;;;;;;20600490;28;20227;-76
2021/12/07 21:44:43;;;;;;;0.20;0.00;;;13.70;99.90;;;;;;20670317;28;20223;-75
2021/12/07 21:54:53;;;;;;;0.20;0.00;;;13.80;99.90;;;;;;20669378;28;20265;-76
2021/12/07 22:05:09;;;;;;;0.20;0.10;;;13.90;99.90;;;;;;20668439;28;20202;-77
2021/12/07 22:15:18;;;;;;;0.20;0.00;;;13.90;99.90;;;;;;20597141;28;20234;-76
2021/12/07 22:25:31;;;;;;;0.20;0.00;;;14.00;99.90;;;;;;20547905;28;20462;-73
2021/12/07 22:35:38;;;;;;;0.20;0.10;;;13.90;99.90;;;;;;20569607;28;20255;-75
2021/12/07 22:45:47;;;;;;;0.20;0.10;;;13.50;99.90;;;;;;20644035;28;20288;-74
2021/12/07 22:55:53;;;;;;;0.20;0.10;;;13.40;99.90;;;;;;20661390;28;20325;-74
2021/12/07 23:05:58;;;;;;;0.20;0.10;;;13.70;99.90;;;;;;20660921;28;20199;-73
2021/12/07 23:16:02;;;;;;;0.33;0.33;;;14.20;99.90;;;;;;20642317;28;20223;-73
2021/12/07 23:26:09;;;;;;;0.20;0.10;;;14.40;99.90;;;;;;20659850;28;20199;-75
2021/12/07 23:36:15;;;;;;;0.20;0.00;;;14.60;99.90;;;;;;20655855;28;20290;-74
2021/12/07 23:46:22;;;;;;;0.20;0.00;;;15.00;99.90;;;;;;20658145;28;20318;-74
2021/12/07 23:56:26;;;;;;;0.20;0.10;;;15.00;99.90;;;;;;20639278;28;20762;-74
